sensor_id;sensor_type;location;lat;lon;timestamp;P1;durP1;ratioP1;P2;durP2;ratioP2
1837;SDS011;918;50.796;6.772;2023-05-18T00:01:41;8.80;;;5.83;;
1837;SDS011;918;50.796;6.772;2023-05-18T00:04:06;9.50;;;5.40;;
1837;SDS011;918;50.796;6.772;2023-05-18T00:06:32;7.00;;;5.27;;
1837;SDS011;918;50.796;6.772;2023-05-18T00:08:57;5.83;;;5.40;;
1837;SDS011;918;50.796;6.772;2023-05-18T00:11:22;7.73;;;5.70;;
1837;SDS011;918;50.796;6.772;2023-05-18T00:13:48;6.13;;;5.53;;
1837;SDS011;918;50.796;6.772;2023-05-18T00:16:13;6.20;;;5.60;;
1837;SDS011;918;50.796;6.772;2023-05-18T00:18:39;6.17;;;5.67;;
1837;SDS011;918;50.796;6.772;2023-05-18T00:21:05;6.20;;;5.60;;
1837;SDS011;918;50.796;6.772;2023-05-18T00:23:30;7.47;;;6.00;;
1837;SDS011;918;50.796;6.772;2023-05-18T00:26:00;6.10;;;5.27;;
1837;SDS011;918;50.796;6.772;2023-05-18T00:28:26;7.00;;;6.07;;
1837;SDS011;918;50.796;6.772;2023-05-18T00:30:54;8.27;;;5.67;;
1837;SDS011;918;50.796;6.772;2023-05-18T00:33:20;5.67;;;5.17;;
1837;SDS011;918;50.796;6.772;2023-05-18T00:35:46;5.87;;;5.30;;
1837;SDS011;918;50.796;6.772;2023-05-18T00:38:11;7.33;;;5.17;;
1837;SDS011;918;50.796;6.772;2023-05-18T00:40:39;8.90;;;6.00;;
1837;SDS011;918;50.796;6.772;2023-05-18T00:43:04;5.53;;;5.13;;
1837;SDS011;918;50.796;6.772;2023-05-18T00:45:29;7.23;;;5.53;;
1837;SDS011;918;50.796;6.772;2023-05-18T00:47:55;6.93;;;5.63;;
1837;SDS011;918;50.796;6.772;2023-05-18T00:50:20;6.13;;;5.33;;
1837;SDS011;918;50.796;6.772;2023-05-18T00:52:45;7.00;;;5.30;;
1837;SDS011;918;50.796;6.772;2023-05-18T00:55:11;5.80;;;5.30;;
1837;SDS011;918;50.796;6.772;2023-05-18T00:57:37;8.90;;;6.30;;
1837;SDS011;918;50.796;6.772;2023-05-18T01:00:03;5.57;;;5.07;;
1837;SDS011;918;50.796;6.772;2023-05-18T01:02:34;5.77;;;4.80;;
1837;SDS011;918;50.796;6.772;2023-05-18T01:05:00;5.10;;;4.60;;
1837;SDS011;918;50.796;6.772;2023-05-18T01:07:27;6.77;;;5.70;;
1837;SDS011;918;50.796;6.772;2023-05-18T01:09:53;7.90;;;4.50;;
1837;SDS011;918;50.796;6.772;2023-05-18T01:12:23;5.80;;;5.30;;
1837;SDS011;918;50.796;6.772;2023-05-18T01:18:09;6.87;;;5.47;;
1837;SDS011;918;50.796;6.772;2023-05-18T01:26:16;5.63;;;5.13;;
1837;SDS011;918;50.796;6.772;2023-05-18T01:28:48;7.63;;;4.97;;
1837;SDS011;918;50.796;6.772;2023-05-18T01:31:15;6.20;;;5.30;;
1837;SDS011;918;50.796;6.772;2023-05-18T01:33:40;6.67;;;5.50;;
1837;SDS011;918;50.796;6.772;2023-05-18T01:36:06;5.60;;;5.13;;
1837;SDS011;918;50.796;6.772;2023-05-18T01:38:31;5.27;;;4.77;;
1837;SDS011;918;50.796;6.772;2023-05-18T01:41:01;5.77;;;5.13;;
1837;SDS011;918;50.796;6.772;2023-05-18T01:43:33;14.67;;;7.20;;
1837;SDS011;918;50.796;6.772;2023-05-18T01:46:04;6.20;;;5.60;;
1837;SDS011;918;50.796;6.772;2023-05-18T01:48:34;6.30;;;5.70;;
1837;SDS011;918;50.796;6.772;2023-05-18T01:51:02;5.67;;;4.80;;
1837;SDS011;918;50.796;6.772;2023-05-18T01:53:38;5.23;;;4.83;;
1837;SDS011;918;50.796;6.772;2023-05-18T01:56:07;5.83;;;4.80;;
1837;SDS011;918;50.796;6.772;2023-05-18T01:58:35;5.47;;;4.97;;
1837;SDS011;918;50.796;6.772;2023-05-18T02:01:00;6.03;;;5.00;;
1837;SDS011;918;50.796;6.772;2023-05-18T02:03:26;5.67;;;4.67;;
1837;SDS011;918;50.796;6.772;2023-05-18T02:05:52;5.10;;;4.70;;
1837;SDS011;918;50.796;6.772;2023-05-18T02:08:17;6.10;;;4.40;;
1837;SDS011;918;50.796;6.772;2023-05-18T02:10:42;5.30;;;4.80;;
1837;SDS011;918;50.796;6.772;2023-05-18T02:13:07;4.90;;;4.50;;
1837;SDS011;918;50.796;6.772;2023-05-18T02:15:33;4.97;;;4.57;;
1837;SDS011;918;50.796;6.772;2023-05-18T02:17:58;5.67;;;5.20;;
1837;SDS011;918;50.796;6.772;2023-05-18T02:20:23;4.97;;;4.43;;
1837;SDS011;918;50.796;6.772;2023-05-18T02:22:48;7.60;;;5.20;;
1837;SDS011;918;50.796;6.772;2023-05-18T02:25:14;6.90;;;5.00;;
1837;SDS011;918;50.796;6.772;2023-05-18T02:27:39;6.77;;;5.10;;
1837;SDS011;918;50.796;6.772;2023-05-18T02:30:04;7.97;;;6.00;;
1837;SDS011;918;50.796;6.772;2023-05-18T02:32:32;7.77;;;5.93;;
1837;SDS011;918;50.796;6.772;2023-05-18T02:35:04;7.20;;;6.50;;
1837;SDS011;918;50.796;6.772;2023-05-18T02:37:30;6.20;;;5.37;;
1837;SDS011;918;50.796;6.772;2023-05-18T02:39:58;5.87;;;5.17;;
1837;SDS011;918;50.796;6.772;2023-05-18T02:42:24;6.83;;;5.77;;
1837;SDS011;918;50.796;6.772;2023-05-18T02:44:49;6.73;;;6.17;;
1837;SDS011;918;50.796;6.772;2023-05-18T02:47:14;5.73;;;5.23;;
1837;SDS011;918;50.796;6.772;2023-05-18T02:49:39;8.50;;;5.47;;
1837;SDS011;918;50.796;6.772;2023-05-18T02:52:05;6.23;;;5.63;;
1837;SDS011;918;50.796;6.772;2023-05-18T02:54:30;7.17;;;5.30;;
1837;SDS011;918;50.796;6.772;2023-05-18T02:56:56;10.50;;;5.63;;
1837;SDS011;918;50.796;6.772;2023-05-18T02:59:22;5.90;;;5.43;;
1837;SDS011;918;50.796;6.772;2023-05-18T03:01:48;6.00;;;5.40;;
1837;SDS011;918;50.796;6.772;2023-05-18T03:04:13;6.57;;;5.97;;
1837;SDS011;918;50.796;6.772;2023-05-18T03:06:38;5.70;;;5.30;;
1837;SDS011;918;50.796;6.772;2023-05-18T03:09:04;9.43;;;5.57;;
1837;SDS011;918;50.796;6.772;2023-05-18T03:11:29;6.50;;;5.87;;
1837;SDS011;918;50.796;6.772;2023-05-18T03:13:54;6.40;;;5.90;;
1837;SDS011;918;50.796;6.772;2023-05-18T03:16:20;6.30;;;5.57;;
1837;SDS011;918;50.796;6.772;2023-05-18T03:18:45;6.97;;;6.20;;
1837;SDS011;918;50.796;6.772;2023-05-18T03:21:10;7.63;;;6.33;;
1837;SDS011;918;50.796;6.772;2023-05-18T03:23:37;6.30;;;5.80;;
1837;SDS011;918;50.796;6.772;2023-05-18T03:26:03;6.00;;;5.40;;
1837;SDS011;918;50.796;6.772;2023-05-18T03:28:34;6.00;;;5.40;;
1837;SDS011;918;50.796;6.772;2023-05-18T03:31:00;5.97;;;5.27;;
1837;SDS011;918;50.796;6.772;2023-05-18T03:33:25;5.60;;;4.70;;
1837;SDS011;918;50.796;6.772;2023-05-18T03:35:50;6.17;;;5.70;;
1837;SDS011;918;50.796;6.772;2023-05-18T03:38:16;6.57;;;5.60;;
1837;SDS011;918;50.796;6.772;2023-05-18T03:40:41;6.17;;;4.67;;
1837;SDS011;918;50.796;6.772;2023-05-18T03:43:06;6.20;;;5.70;;
1837;SDS011;918;50.796;6.772;2023-05-18T03:45:32;5.37;;;4.87;;
1837;SDS011;918;50.796;6.772;2023-05-18T03:47:57;5.37;;;4.97;;
1837;SDS011;918;50.796;6.772;2023-05-18T03:50:22;5.43;;;5.00;;
1837;SDS011;918;50.796;6.772;2023-05-18T03:52:47;6.60;;;5.63;;
1837;SDS011;918;50.796;6.772;2023-05-18T03:55:13;7.00;;;5.67;;
1837;SDS011;918;50.796;6.772;2023-05-18T03:57:38;5.80;;;5.30;;
1837;SDS011;918;50.796;6.772;2023-05-18T04:00:04;7.23;;;5.80;;
1837;SDS011;918;50.796;6.772;2023-05-18T04:02:31;6.00;;;5.50;;
1837;SDS011;918;50.796;6.772;2023-05-18T04:04:56;5.70;;;5.03;;
1837;SDS011;918;50.796;6.772;2023-05-18T04:07:22;5.93;;;5.30;;
1837;SDS011;918;50.796;6.772;2023-05-18T04:09:48;6.10;;;5.50;;
1837;SDS011;918;50.796;6.772;2023-05-18T04:12:14;9.40;;;5.90;;
1837;SDS011;918;50.796;6.772;2023-05-18T04:14:39;8.73;;;5.70;;
1837;SDS011;918;50.796;6.772;2023-05-18T04:17:07;5.80;;;5.40;;
1837;SDS011;918;50.796;6.772;2023-05-18T04:19:34;6.13;;;5.53;;
1837;SDS011;918;50.796;6.772;2023-05-18T04:22:00;6.80;;;6.13;;
1837;SDS011;918;50.796;6.772;2023-05-18T04:24:28;10.83;;;6.90;;
1837;SDS011;918;50.796;6.772;2023-05-18T04:26:57;12.97;;;7.17;;
1837;SDS011;918;50.796;6.772;2023-05-18T04:29:23;10.57;;;7.00;;
1837;SDS011;918;50.796;6.772;2023-05-18T04:31:48;9.00;;;8.17;;
1837;SDS011;918;50.796;6.772;2023-05-18T04:34:14;14.10;;;8.53;;
1837;SDS011;918;50.796;6.772;2023-05-18T04:36:41;10.53;;;6.87;;
1837;SDS011;918;50.796;6.772;2023-05-18T04:39:08;7.10;;;6.40;;
1837;SDS011;918;50.796;6.772;2023-05-18T04:41:33;8.73;;;6.53;;
1837;SDS011;918;50.796;6.772;2023-05-18T04:43:59;8.87;;;5.77;;
1837;SDS011;918;50.796;6.772;2023-05-18T04:46:25;7.00;;;5.37;;
1837;SDS011;918;50.796;6.772;2023-05-18T04:48:52;6.63;;;5.83;;
1837;SDS011;918;50.796;6.772;2023-05-18T04:51:21;5.77;;;5.17;;
1837;SDS011;918;50.796;6.772;2023-05-18T04:53:47;6.30;;;5.70;;
1837;SDS011;918;50.796;6.772;2023-05-18T04:56:14;6.40;;;5.80;;
1837;SDS011;918;50.796;6.772;2023-05-18T04:58:40;6.77;;;5.97;;
1837;SDS011;918;50.796;6.772;2023-05-18T05:01:05;6.80;;;6.07;;
1837;SDS011;918;50.796;6.772;2023-05-18T05:03:31;6.60;;;5.90;;
1837;SDS011;918;50.796;6.772;2023-05-18T05:05:57;6.40;;;5.80;;
1837;SDS011;918;50.796;6.772;2023-05-18T05:08:22;6.80;;;5.93;;
1837;SDS011;918;50.796;6.772;2023-05-18T05:10:47;5.80;;;5.27;;
1837;SDS011;918;50.796;6.772;2023-05-18T05:13:12;7.33;;;6.33;;
1837;SDS011;918;50.796;6.772;2023-05-18T05:15:38;9.50;;;5.70;;
1837;SDS011;918;50.796;6.772;2023-05-18T05:18:03;6.33;;;5.73;;
1837;SDS011;918;50.796;6.772;2023-05-18T05:20:28;6.70;;;5.50;;
1837;SDS011;918;50.796;6.772;2023-05-18T05:22:53;6.20;;;5.00;;
1837;SDS011;918;50.796;6.772;2023-05-18T05:25:19;5.50;;;4.40;;
1837;SDS011;918;50.796;6.772;2023-05-18T05:27:45;5.17;;;4.77;;
1837;SDS011;918;50.796;6.772;2023-05-18T05:30:10;6.03;;;5.60;;
1837;SDS011;918;50.796;6.772;2023-05-18T05:32:35;5.10;;;4.70;;
1837;SDS011;918;50.796;6.772;2023-05-18T05:35:01;5.63;;;5.20;;
1837;SDS011;918;50.796;6.772;2023-05-18T05:37:27;5.67;;;5.17;;
1837;SDS011;918;50.796;6.772;2023-05-18T05:39:52;5.07;;;4.57;;
1837;SDS011;918;50.796;6.772;2023-05-18T05:42:17;6.40;;;4.83;;
1837;SDS011;918;50.796;6.772;2023-05-18T05:44:43;5.77;;;5.27;;
1837;SDS011;918;50.796;6.772;2023-05-18T05:47:08;5.63;;;5.00;;
1837;SDS011;918;50.796;6.772;2023-05-18T05:49:33;5.60;;;5.10;;
1837;SDS011;918;50.796;6.772;2023-05-18T05:51:59;6.43;;;5.10;;
1837;SDS011;918;50.796;6.772;2023-05-18T05:54:24;5.83;;;5.43;;
1837;SDS011;918;50.796;6.772;2023-05-18T05:56:49;6.73;;;5.33;;
1837;SDS011;918;50.796;6.772;2023-05-18T05:59:15;10.20;;;4.93;;
1837;SDS011;918;50.796;6.772;2023-05-18T06:01:40;9.10;;;6.60;;
1837;SDS011;918;50.796;6.772;2023-05-18T06:04:05;7.77;;;6.00;;
1837;SDS011;918;50.796;6.772;2023-05-18T06:06:35;6.03;;;5.53;;
1837;SDS011;918;50.796;6.772;2023-05-18T06:09:01;6.37;;;5.50;;
1837;SDS011;918;50.796;6.772;2023-05-18T06:11:28;6.80;;;4.43;;
1837;SDS011;918;50.796;6.772;2023-05-18T06:13:53;6.20;;;5.60;;
1837;SDS011;918;50.796;6.772;2023-05-18T06:16:19;9.50;;;7.30;;
1837;SDS011;918;50.796;6.772;2023-05-18T06:18:44;7.10;;;6.10;;
1837;SDS011;918;50.796;6.772;2023-05-18T06:21:09;6.87;;;6.17;;
1837;SDS011;918;50.796;6.772;2023-05-18T06:23:35;7.73;;;5.80;;
1837;SDS011;918;50.796;6.772;2023-05-18T06:26:00;6.13;;;5.40;;
1837;SDS011;918;50.796;6.772;2023-05-18T06:28:25;5.97;;;4.83;;
1837;SDS011;918;50.796;6.772;2023-05-18T06:30:50;6.30;;;5.33;;
1837;SDS011;918;50.796;6.772;2023-05-18T06:33:16;5.53;;;4.87;;
1837;SDS011;918;50.796;6.772;2023-05-18T06:35:41;5.20;;;4.30;;
1837;SDS011;918;50.796;6.772;2023-05-18T06:38:07;7.00;;;5.97;;
1837;SDS011;918;50.796;6.772;2023-05-18T06:40:32;11.40;;;5.87;;
1837;SDS011;918;50.796;6.772;2023-05-18T06:42:57;5.33;;;4.73;;
1837;SDS011;918;50.796;6.772;2023-05-18T06:45:23;10.23;;;5.40;;
1837;SDS011;918;50.796;6.772;2023-05-18T06:47:48;6.83;;;6.10;;
1837;SDS011;918;50.796;6.772;2023-05-18T06:50:13;7.20;;;5.20;;
1837;SDS011;918;50.796;6.772;2023-05-18T06:52:39;5.10;;;4.57;;
1837;SDS011;918;50.796;6.772;2023-05-18T06:55:04;6.20;;;5.17;;
1837;SDS011;918;50.796;6.772;2023-05-18T06:57:31;5.87;;;4.87;;
1837;SDS011;918;50.796;6.772;2023-05-18T06:59:57;10.80;;;5.00;;
1837;SDS011;918;50.796;6.772;2023-05-18T07:02:23;6.23;;;4.13;;
1837;SDS011;918;50.796;6.772;2023-05-18T07:04:48;8.87;;;4.87;;
1837;SDS011;918;50.796;6.772;2023-05-18T07:07:14;5.40;;;4.47;;
1837;SDS011;918;50.796;6.772;2023-05-18T07:09:40;6.00;;;3.37;;
1837;SDS011;918;50.796;6.772;2023-05-18T07:12:07;5.40;;;3.90;;
1837;SDS011;918;50.796;6.772;2023-05-18T07:14:32;4.87;;;3.50;;
1837;SDS011;918;50.796;6.772;2023-05-18T07:16:57;5.37;;;3.13;;
1837;SDS011;918;50.796;6.772;2023-05-18T07:19:23;4.50;;;3.10;;
1837;SDS011;918;50.796;6.772;2023-05-18T07:21:48;7.43;;;3.40;;
1837;SDS011;918;50.796;6.772;2023-05-18T07:24:13;5.63;;;3.13;;
1837;SDS011;918;50.796;6.772;2023-05-18T07:26:38;6.87;;;4.90;;
1837;SDS011;918;50.796;6.772;2023-05-18T07:29:04;7.17;;;3.80;;
1837;SDS011;918;50.796;6.772;2023-05-18T07:31:29;5.40;;;3.50;;
1837;SDS011;918;50.796;6.772;2023-05-18T07:33:54;4.10;;;3.07;;
1837;SDS011;918;50.796;6.772;2023-05-18T07:36:20;3.77;;;3.43;;
1837;SDS011;918;50.796;6.772;2023-05-18T07:38:45;6.23;;;3.77;;
1837;SDS011;918;50.796;6.772;2023-05-18T07:41:11;6.33;;;3.60;;
1837;SDS011;918;50.796;6.772;2023-05-18T07:43:36;3.20;;;2.80;;
1837;SDS011;918;50.796;6.772;2023-05-18T07:46:02;4.80;;;3.87;;
1837;SDS011;918;50.796;6.772;2023-05-18T07:48:27;8.10;;;4.17;;
1837;SDS011;918;50.796;6.772;2023-05-18T07:50:52;4.77;;;3.20;;
1837;SDS011;918;50.796;6.772;2023-05-18T07:53:18;6.97;;;3.40;;
1837;SDS011;918;50.796;6.772;2023-05-18T07:55:43;3.37;;;2.97;;
1837;SDS011;918;50.796;6.772;2023-05-18T07:58:08;8.17;;;4.07;;
1837;SDS011;918;50.796;6.772;2023-05-18T08:00:34;7.23;;;4.10;;
1837;SDS011;918;50.796;6.772;2023-05-18T08:03:00;5.33;;;3.77;;
1837;SDS011;918;50.796;6.772;2023-05-18T08:05:25;4.40;;;3.90;;
1837;SDS011;918;50.796;6.772;2023-05-18T08:07:50;6.90;;;3.03;;
1837;SDS011;918;50.796;6.772;2023-05-18T08:10:16;4.00;;;3.60;;
1837;SDS011;918;50.796;6.772;2023-05-18T08:12:41;3.77;;;3.30;;
1837;SDS011;918;50.796;6.772;2023-05-18T08:15:07;6.37;;;3.40;;
1837;SDS011;918;50.796;6.772;2023-05-18T08:17:33;4.20;;;3.80;;
1837;SDS011;918;50.796;6.772;2023-05-18T08:19:58;4.80;;;3.73;;
1837;SDS011;918;50.796;6.772;2023-05-18T08:22:23;5.23;;;3.60;;
1837;SDS011;918;50.796;6.772;2023-05-18T08:24:48;4.53;;;3.90;;
1837;SDS011;918;50.796;6.772;2023-05-18T08:27:14;3.90;;;3.50;;
1837;SDS011;918;50.796;6.772;2023-05-18T08:29:39;5.00;;;3.50;;
1837;SDS011;918;50.796;6.772;2023-05-18T08:32:05;8.83;;;4.27;;
1837;SDS011;918;50.796;6.772;2023-05-18T08:34:31;3.37;;;3.00;;
1837;SDS011;918;50.796;6.772;2023-05-18T08:36:56;4.27;;;3.23;;
1837;SDS011;918;50.796;6.772;2023-05-18T08:39:21;6.20;;;4.30;;
1837;SDS011;918;50.796;6.772;2023-05-18T08:41:49;4.93;;;3.73;;
1837;SDS011;918;50.796;6.772;2023-05-18T08:44:24;5.37;;;3.47;;
1837;SDS011;918;50.796;6.772;2023-05-18T08:46:50;6.77;;;4.17;;
1837;SDS011;918;50.796;6.772;2023-05-18T08:49:18;4.50;;;4.10;;
1837;SDS011;918;50.796;6.772;2023-05-18T08:51:45;4.87;;;4.40;;
1837;SDS011;918;50.796;6.772;2023-05-18T08:54:23;7.20;;;4.87;;
1837;SDS011;918;50.796;6.772;2023-05-18T08:56:48;6.57;;;4.90;;
1837;SDS011;918;50.796;6.772;2023-05-18T08:59:17;4.90;;;3.70;;
1837;SDS011;918;50.796;6.772;2023-05-18T09:01:43;6.33;;;4.80;;
1837;SDS011;918;50.796;6.772;2023-05-18T09:04:08;5.80;;;4.57;;
1837;SDS011;918;50.796;6.772;2023-05-18T09:06:34;4.60;;;3.57;;
1837;SDS011;918;50.796;6.772;2023-05-18T09:09:00;5.87;;;4.23;;
1837;SDS011;918;50.796;6.772;2023-05-18T09:11:28;7.30;;;4.47;;
1837;SDS011;918;50.796;6.772;2023-05-18T09:13:55;6.80;;;3.77;;
1837;SDS011;918;50.796;6.772;2023-05-18T09:16:20;6.30;;;3.33;;
1837;SDS011;918;50.796;6.772;2023-05-18T09:18:46;5.60;;;3.53;;
1837;SDS011;918;50.796;6.772;2023-05-18T09:21:11;3.57;;;2.77;;
1837;SDS011;918;50.796;6.772;2023-05-18T09:23:37;6.70;;;3.27;;
1837;SDS011;918;50.796;6.772;2023-05-18T09:26:03;5.40;;;3.57;;
1837;SDS011;918;50.796;6.772;2023-05-18T09:28:34;6.97;;;4.00;;
1837;SDS011;918;50.796;6.772;2023-05-18T09:31:00;3.90;;;3.50;;
1837;SDS011;918;50.796;6.772;2023-05-18T09:33:26;6.13;;;3.50;;
1837;SDS011;918;50.796;6.772;2023-05-18T09:35:57;5.03;;;3.23;;
1837;SDS011;918;50.796;6.772;2023-05-18T09:38:23;7.03;;;3.40;;
1837;SDS011;918;50.796;6.772;2023-05-18T09:40:48;4.00;;;2.77;;
1837;SDS011;918;50.796;6.772;2023-05-18T09:43:17;5.10;;;3.33;;
1837;SDS011;918;50.796;6.772;2023-05-18T09:45:46;5.87;;;3.27;;
1837;SDS011;918;50.796;6.772;2023-05-18T09:48:14;4.27;;;2.60;;
1837;SDS011;918;50.796;6.772;2023-05-18T09:50:42;8.27;;;5.00;;
1837;SDS011;918;50.796;6.772;2023-05-18T09:53:08;6.83;;;3.90;;
1837;SDS011;918;50.796;6.772;2023-05-18T09:55:43;5.07;;;3.00;;
1837;SDS011;918;50.796;6.772;2023-05-18T09:58:09;4.00;;;3.10;;
1837;SDS011;918;50.796;6.772;2023-05-18T10:00:46;3.97;;;3.53;;
1837;SDS011;918;50.796;6.772;2023-05-18T10:03:16;5.53;;;3.17;;
1837;SDS011;918;50.796;6.772;2023-05-18T10:05:45;4.33;;;3.70;;
1837;SDS011;918;50.796;6.772;2023-05-18T10:08:12;5.87;;;3.63;;
1837;SDS011;918;50.796;6.772;2023-05-18T10:10:38;6.73;;;3.37;;
1837;SDS011;918;50.796;6.772;2023-05-18T10:13:04;4.13;;;3.20;;
1837;SDS011;918;50.796;6.772;2023-05-18T10:15:30;6.03;;;3.73;;
1837;SDS011;918;50.796;6.772;2023-05-18T10:17:57;6.30;;;3.67;;
1837;SDS011;918;50.796;6.772;2023-05-18T10:20:23;5.70;;;3.20;;
1837;SDS011;918;50.796;6.772;2023-05-18T10:22:50;5.60;;;2.80;;
1837;SDS011;918;50.796;6.772;2023-05-18T10:25:20;4.13;;;2.90;;
1837;SDS011;918;50.796;6.772;2023-05-18T10:27:47;4.70;;;3.37;;
1837;SDS011;918;50.796;6.772;2023-05-18T10:30:14;5.47;;;3.00;;
1837;SDS011;918;50.796;6.772;2023-05-18T10:32:39;3.60;;;3.30;;
1837;SDS011;918;50.796;6.772;2023-05-18T10:35:06;5.33;;;3.23;;
1837;SDS011;918;50.796;6.772;2023-05-18T10:37:37;3.77;;;2.90;;
1837;SDS011;918;50.796;6.772;2023-05-18T10:40:05;5.30;;;2.90;;
1837;SDS011;918;50.796;6.772;2023-05-18T10:42:32;9.53;;;3.40;;
1837;SDS011;918;50.796;6.772;2023-05-18T10:44:57;5.00;;;3.13;;
1837;SDS011;918;50.796;6.772;2023-05-18T10:47:26;4.50;;;3.23;;
1837;SDS011;918;50.796;6.772;2023-05-18T10:49:52;4.70;;;3.10;;
1837;SDS011;918;50.796;6.772;2023-05-18T10:52:18;5.43;;;3.73;;
1837;SDS011;918;50.796;6.772;2023-05-18T10:54:44;7.37;;;3.47;;
1837;SDS011;918;50.796;6.772;2023-05-18T10:57:10;6.67;;;3.50;;
1837;SDS011;918;50.796;6.772;2023-05-18T10:59:42;6.57;;;3.60;;
1837;SDS011;918;50.796;6.772;2023-05-18T11:02:09;4.27;;;3.70;;
1837;SDS011;918;50.796;6.772;2023-05-18T11:04:34;6.10;;;3.50;;
1837;SDS011;918;50.796;6.772;2023-05-18T11:07:03;6.67;;;3.50;;
1837;SDS011;918;50.796;6.772;2023-05-18T11:09:28;9.87;;;3.57;;
1837;SDS011;918;50.796;6.772;2023-05-18T11:11:57;4.90;;;3.17;;
1837;SDS011;918;50.796;6.772;2023-05-18T11:14:24;6.53;;;3.23;;
1837;SDS011;918;50.796;6.772;2023-05-18T11:16:51;5.60;;;3.50;;
1837;SDS011;918;50.796;6.772;2023-05-18T11:19:17;5.90;;;3.07;;
1837;SDS011;918;50.796;6.772;2023-05-18T11:24:21;4.83;;;2.90;;
1837;SDS011;918;50.796;6.772;2023-05-18T11:26:55;5.37;;;3.50;;
1837;SDS011;918;50.796;6.772;2023-05-18T11:29:40;5.13;;;3.53;;
1837;SDS011;918;50.796;6.772;2023-05-18T11:32:26;4.43;;;3.50;;
1837;SDS011;918;50.796;6.772;2023-05-18T11:34:54;6.30;;;3.47;;
1837;SDS011;918;50.796;6.772;2023-05-18T11:40:04;4.33;;;3.23;;
1837;SDS011;918;50.796;6.772;2023-05-18T11:42:32;5.00;;;3.60;;
1837;SDS011;918;50.796;6.772;2023-05-18T11:45:04;4.87;;;3.50;;
1837;SDS011;918;50.796;6.772;2023-05-18T11:47:33;5.80;;;3.03;;
1837;SDS011;918;50.796;6.772;2023-05-18T11:50:00;5.87;;;3.00;;
1837;SDS011;918;50.796;6.772;2023-05-18T11:52:26;4.53;;;3.07;;
1837;SDS011;918;50.796;6.772;2023-05-18T11:54:52;5.60;;;3.73;;
1837;SDS011;918;50.796;6.772;2023-05-18T11:57:19;5.77;;;3.80;;
1837;SDS011;918;50.796;6.772;2023-05-18T11:59:54;5.10;;;3.90;;
1837;SDS011;918;50.796;6.772;2023-05-18T12:02:21;6.40;;;4.03;;
1837;SDS011;918;50.796;6.772;2023-05-18T12:04:52;3.43;;;3.10;;
1837;SDS011;918;50.796;6.772;2023-05-18T12:07:18;3.70;;;2.73;;
1837;SDS011;918;50.796;6.772;2023-05-18T12:09:44;6.70;;;3.30;;
1837;SDS011;918;50.796;6.772;2023-05-18T12:12:11;8.10;;;5.07;;
1837;SDS011;918;50.796;6.772;2023-05-18T12:14:39;5.20;;;3.83;;
1837;SDS011;918;50.796;6.772;2023-05-18T12:17:06;3.03;;;2.73;;
1837;SDS011;918;50.796;6.772;2023-05-18T12:19:41;4.50;;;3.40;;
1837;SDS011;918;50.796;6.772;2023-05-18T12:22:08;5.00;;;3.63;;
1837;SDS011;918;50.796;6.772;2023-05-18T12:24:34;4.10;;;3.60;;
1837;SDS011;918;50.796;6.772;2023-05-18T12:26:59;6.77;;;3.60;;
1837;SDS011;918;50.796;6.772;2023-05-18T12:29:28;7.00;;;4.30;;
1837;SDS011;918;50.796;6.772;2023-05-18T12:31:54;4.27;;;3.27;;
1837;SDS011;918;50.796;6.772;2023-05-18T12:34:19;6.00;;;3.60;;
1837;SDS011;918;50.796;6.772;2023-05-18T12:36:51;4.13;;;3.37;;
1837;SDS011;918;50.796;6.772;2023-05-18T12:39:20;4.90;;;3.50;;
1837;SDS011;918;50.796;6.772;2023-05-18T12:41:46;5.83;;;3.60;;
1837;SDS011;918;50.796;6.772;2023-05-18T12:44:11;6.07;;;3.63;;
1837;SDS011;918;50.796;6.772;2023-05-18T12:46:36;5.50;;;3.43;;
1837;SDS011;918;50.796;6.772;2023-05-18T12:49:02;4.07;;;3.10;;
1837;SDS011;918;50.796;6.772;2023-05-18T12:51:32;3.43;;;3.07;;
1837;SDS011;918;50.796;6.772;2023-05-18T12:53:59;4.70;;;3.17;;
1837;SDS011;918;50.796;6.772;2023-05-18T12:56:24;7.73;;;2.93;;
1837;SDS011;918;50.796;6.772;2023-05-18T12:58:59;5.33;;;2.97;;
1837;SDS011;918;50.796;6.772;2023-05-18T13:01:27;4.47;;;3.10;;
1837;SDS011;918;50.796;6.772;2023-05-18T13:03:58;5.33;;;3.70;;
1837;SDS011;918;50.796;6.772;2023-05-18T13:06:24;6.83;;;3.50;;
1837;SDS011;918;50.796;6.772;2023-05-18T13:08:52;3.40;;;3.10;;
1837;SDS011;918;50.796;6.772;2023-05-18T13:11:22;5.83;;;3.13;;
1837;SDS011;918;50.796;6.772;2023-05-18T13:14:01;5.87;;;3.43;;
1837;SDS011;918;50.796;6.772;2023-05-18T13:16:28;4.70;;;3.80;;
1837;SDS011;918;50.796;6.772;2023-05-18T13:18:55;5.33;;;3.40;;
1837;SDS011;918;50.796;6.772;2023-05-18T13:21:21;4.73;;;3.23;;
1837;SDS011;918;50.796;6.772;2023-05-18T13:23:46;3.70;;;3.40;;
1837;SDS011;918;50.796;6.772;2023-05-18T13:26:11;5.90;;;3.30;;
1837;SDS011;918;50.796;6.772;2023-05-18T13:28:36;9.13;;;2.87;;
1837;SDS011;918;50.796;6.772;2023-05-18T13:31:02;3.33;;;2.60;;
1837;SDS011;918;50.796;6.772;2023-05-18T13:33:27;5.53;;;4.00;;
1837;SDS011;918;50.796;6.772;2023-05-18T13:35:52;6.10;;;4.30;;
1837;SDS011;918;50.796;6.772;2023-05-18T13:38:17;6.30;;;3.40;;
1837;SDS011;918;50.796;6.772;2023-05-18T13:40:43;2.60;;;2.37;;
1837;SDS011;918;50.796;6.772;2023-05-18T13:43:09;8.13;;;3.10;;
1837;SDS011;918;50.796;6.772;2023-05-18T13:45:35;4.07;;;3.10;;
1837;SDS011;918;50.796;6.772;2023-05-18T13:48:00;5.07;;;3.03;;
1837;SDS011;918;50.796;6.772;2023-05-18T13:50:27;4.23;;;3.00;;
1837;SDS011;918;50.796;6.772;2023-05-18T13:52:52;5.10;;;2.80;;
1837;SDS011;918;50.796;6.772;2023-05-18T13:55:17;5.87;;;3.13;;
1837;SDS011;918;50.796;6.772;2023-05-18T13:57:43;8.37;;;3.13;;
1837;SDS011;918;50.796;6.772;2023-05-18T14:00:09;4.87;;;2.97;;
1837;SDS011;918;50.796;6.772;2023-05-18T14:02:38;6.77;;;2.60;;
1837;SDS011;918;50.796;6.772;2023-05-18T14:05:10;4.10;;;2.97;;
1837;SDS011;918;50.796;6.772;2023-05-18T14:07:42;4.70;;;3.63;;
1837;SDS011;918;50.796;6.772;2023-05-18T14:10:08;2.50;;;2.40;;
1837;SDS011;918;50.796;6.772;2023-05-18T14:12:34;10.10;;;3.90;;
1837;SDS011;918;50.796;6.772;2023-05-18T14:14:59;6.33;;;3.27;;
1837;SDS011;918;50.796;6.772;2023-05-18T14:17:25;4.70;;;3.20;;
1837;SDS011;918;50.796;6.772;2023-05-18T14:19:54;3.60;;;3.30;;
1837;SDS011;918;50.796;6.772;2023-05-18T14:22:20;5.40;;;3.60;;
1837;SDS011;918;50.796;6.772;2023-05-18T14:24:46;4.40;;;3.40;;
1837;SDS011;918;50.796;6.772;2023-05-18T14:27:11;3.87;;;3.47;;
1837;SDS011;918;50.796;6.772;2023-05-18T14:29:37;5.13;;;3.30;;
1837;SDS011;918;50.796;6.772;2023-05-18T14:32:02;5.50;;;3.70;;
1837;SDS011;918;50.796;6.772;2023-05-18T14:34:27;8.00;;;4.03;;
1837;SDS011;918;50.796;6.772;2023-05-18T14:36:52;6.00;;;3.40;;
1837;SDS011;918;50.796;6.772;2023-05-18T14:39:18;5.70;;;3.70;;
1837;SDS011;918;50.796;6.772;2023-05-18T14:41:43;3.87;;;3.53;;
1837;SDS011;918;50.796;6.772;2023-05-18T14:44:08;5.37;;;3.37;;
1837;SDS011;918;50.796;6.772;2023-05-18T14:46:34;5.23;;;3.67;;
1837;SDS011;918;50.796;6.772;2023-05-18T14:49:00;6.70;;;3.57;;
1837;SDS011;918;50.796;6.772;2023-05-18T14:51:25;5.67;;;3.70;;
1837;SDS011;918;50.796;6.772;2023-05-18T14:53:50;7.40;;;3.80;;
1837;SDS011;918;50.796;6.772;2023-05-18T14:56:15;4.50;;;3.07;;
1837;SDS011;918;50.796;6.772;2023-05-18T14:58:41;3.63;;;3.33;;
1837;SDS011;918;50.796;6.772;2023-05-18T15:01:06;5.90;;;4.90;;
1837;SDS011;918;50.796;6.772;2023-05-18T15:03:31;7.07;;;4.43;;
1837;SDS011;918;50.796;6.772;2023-05-18T15:05:57;5.40;;;3.93;;
1837;SDS011;918;50.796;6.772;2023-05-18T15:08:22;3.90;;;3.40;;
1837;SDS011;918;50.796;6.772;2023-05-18T15:10:47;5.53;;;4.10;;
1837;SDS011;918;50.796;6.772;2023-05-18T15:13:14;5.00;;;3.13;;
1837;SDS011;918;50.796;6.772;2023-05-18T15:15:40;7.60;;;3.30;;
1837;SDS011;918;50.796;6.772;2023-05-18T15:18:05;3.83;;;3.10;;
1837;SDS011;918;50.796;6.772;2023-05-18T15:20:30;4.73;;;4.07;;
1837;SDS011;918;50.796;6.772;2023-05-18T15:22:55;12.80;;;3.90;;
1837;SDS011;918;50.796;6.772;2023-05-18T15:25:21;5.20;;;3.63;;
1837;SDS011;918;50.796;6.772;2023-05-18T15:27:46;5.73;;;3.30;;
1837;SDS011;918;50.796;6.772;2023-05-18T15:30:13;5.13;;;3.93;;
1837;SDS011;918;50.796;6.772;2023-05-18T15:32:38;4.43;;;3.40;;
1837;SDS011;918;50.796;6.772;2023-05-18T15:35:04;5.20;;;4.33;;
1837;SDS011;918;50.796;6.772;2023-05-18T15:37:30;8.30;;;3.90;;
1837;SDS011;918;50.796;6.772;2023-05-18T15:39:56;7.30;;;3.63;;